Porfirio, Texas
Current Conditions -  °F | °C
As of 6:15 AM on Sunday 23 Nov 2014 (Local Time) from KEBG Reporting Station
Moderate Fog Moderate Fog  
Wind Chill: 62°   Ceiling: 200
Heat Index: 62°   Visibility: 0.25mi
Dew Point: 60°   Wind: 0mph
Humidity: 93%   Direction: NA
Pressure: 29.77"   Gusts: NA
Location:  26.5112°N, 97.8502°W
Report Text: KEBG 231215Z AUTO 00000KT 1/4SM FG OVC002 17/16 A2977 RMK AO2 T01680156
Loading
Personal Weather Stations






























Interactive Weather Map New forecast layout! Learn more

10-Day Weather Forecast

Advertisements
Track Severe Weather on mobile